sensor_id;sensor_type;location;lat;lon;timestamp;pressure;altitude;pressure_sealevel;temperature;humidity
41250;BME280;26984;59.928;30.306;2023-01-29T00:02:17;100752.63;;;-2.15;100.00
41250;BME280;26984;59.928;30.306;2023-01-29T00:04:45;100749.22;;;-2.06;100.00
41250;BME280;26984;59.928;30.306;2023-01-29T00:07:14;100743.44;;;-1.90;100.00
41250;BME280;26984;59.928;30.306;2023-01-29T00:09:42;100739.81;;;-1.99;100.00
41250;BME280;26984;59.928;30.306;2023-01-29T00:12:12;100732.16;;;-1.93;100.00
41250;BME280;26984;59.928;30.306;2023-01-29T00:14:40;100721.91;;;-1.86;100.00
41250;BME280;26984;59.928;30.306;2023-01-29T00:17:08;100711.22;;;-1.84;100.00
41250;BME280;26984;59.928;30.306;2023-01-29T00:19:36;100714.06;;;-1.66;100.00
41250;BME280;26984;59.928;30.306;2023-01-29T00:22:04;100720.84;;;-1.74;100.00
41250;BME280;26984;59.928;30.306;2023-01-29T00:24:33;100709.03;;;-1.70;100.00
41250;BME280;26984;59.928;30.306;2023-01-29T00:27:01;100712.25;;;-1.66;100.00
41250;BME280;26984;59.928;30.306;2023-01-29T00:29:34;100709.44;;;-1.64;100.00
41250;BME280;26984;59.928;30.306;2023-01-29T00:32:05;100700.44;;;-1.62;100.00
41250;BME280;26984;59.928;30.306;2023-01-29T00:34:40;100700.84;;;-1.57;100.00
41250;BME280;26984;59.928;30.306;2023-01-29T00:37:25;100683.47;;;-1.59;100.00
41250;BME280;26984;59.928;30.306;2023-01-29T00:40:08;100673.75;;;-1.49;100.00
41250;BME280;26984;59.928;30.306;2023-01-29T00:42:37;100687.25;;;-1.52;100.00
41250;BME280;26984;59.928;30.306;2023-01-29T00:45:25;100691.69;;;-1.43;100.00
41250;BME280;26984;59.928;30.306;2023-01-29T00:47:56;100684.34;;;-1.30;100.00
41250;BME280;26984;59.928;30.306;2023-01-29T00:50:29;100677.38;;;-1.31;100.00
41250;BME280;26984;59.928;30.306;2023-01-29T00:52:58;100678.50;;;-1.24;100.00
41250;BME280;26984;59.928;30.306;2023-01-29T00:55:27;100673.63;;;-1.18;100.00
41250;BME280;26984;59.928;30.306;2023-01-29T00:57:57;100679.03;;;-1.10;100.00
41250;BME280;26984;59.928;30.306;2023-01-29T01:00:28;100682.25;;;-1.16;100.00
41250;BME280;26984;59.928;30.306;2023-01-29T01:02:57;100672.09;;;-1.21;100.00
41250;BME280;26984;59.928;30.306;2023-01-29T01:05:34;100658.88;;;-1.11;100.00
41250;BME280;26984;59.928;30.306;2023-01-29T01:08:03;100660.84;;;-1.13;100.00
41250;BME280;26984;59.928;30.306;2023-01-29T01:11:00;100651.50;;;-0.98;100.00
41250;BME280;26984;59.928;30.306;2023-01-29T01:13:27;100655.94;;;-0.99;100.00
41250;BME280;26984;59.928;30.306;2023-01-29T01:15:56;100656.78;;;-0.98;100.00
41250;BME280;26984;59.928;30.306;2023-01-29T01:18:24;100654.53;;;-0.74;100.00
41250;BME280;26984;59.928;30.306;2023-01-29T01:20:56;100650.38;;;-0.95;100.00
41250;BME280;26984;59.928;30.306;2023-01-29T01:23:25;100646.06;;;-0.97;100.00
41250;BME280;26984;59.928;30.306;2023-01-29T01:25:53;100649.94;;;-0.91;100.00
41250;BME280;26984;59.928;30.306;2023-01-29T01:28:22;100640.22;;;-1.00;100.00
41250;BME280;26984;59.928;30.306;2023-01-29T01:30:50;100637.84;;;-0.93;100.00
41250;BME280;26984;59.928;30.306;2023-01-29T01:33:18;100638.66;;;-0.93;100.00
41250;BME280;26984;59.928;30.306;2023-01-29T01:35:46;100633.97;;;-0.99;100.00
41250;BME280;26984;59.928;30.306;2023-01-29T01:38:14;100634.25;;;-0.92;100.00
41250;BME280;26984;59.928;30.306;2023-01-29T01:40:44;100633.53;;;-0.94;100.00
41250;BME280;26984;59.928;30.306;2023-01-29T01:43:12;100614.09;;;-1.13;100.00
41250;BME280;26984;59.928;30.306;2023-01-29T01:45:41;100617.41;;;-1.11;100.00
41250;BME280;26984;59.928;30.306;2023-01-29T01:48:16;100580.00;;;-1.26;100.00
41250;BME280;26984;59.928;30.306;2023-01-29T01:50:48;100618.22;;;-1.01;100.00
41250;BME280;26984;59.928;30.306;2023-01-29T01:53:21;100615.31;;;-1.07;100.00
41250;BME280;26984;59.928;30.306;2023-01-29T01:55:53;100622.84;;;-1.12;100.00
41250;BME280;26984;59.928;30.306;2023-01-29T01:58:26;100627.03;;;-1.29;100.00
41250;BME280;26984;59.928;30.306;2023-01-29T02:00:59;100632.03;;;-1.36;100.00
41250;BME280;26984;59.928;30.306;2023-01-29T02:03:29;100633.13;;;-1.29;100.00
41250;BME280;26984;59.928;30.306;2023-01-29T02:06:18;100636.91;;;-1.41;100.00
41250;BME280;26984;59.928;30.306;2023-01-29T02:09:05;100636.47;;;-1.46;100.00
41250;BME280;26984;59.928;30.306;2023-01-29T02:11:52;100634.97;;;-1.49;100.00
41250;BME280;26984;59.928;30.306;2023-01-29T02:14:20;100632.16;;;-1.47;100.00
41250;BME280;26984;59.928;30.306;2023-01-29T02:16:49;100629.38;;;-1.36;100.00
41250;BME280;26984;59.928;30.306;2023-01-29T02:19:25;100626.59;;;-1.44;100.00
41250;BME280;26984;59.928;30.306;2023-01-29T02:22:09;100614.09;;;-1.42;100.00
41250;BME280;26984;59.928;30.306;2023-01-29T02:25:02;100607.41;;;-1.46;100.00
41250;BME280;26984;59.928;30.306;2023-01-29T02:28:09;100599.91;;;-1.41;100.00
41250;BME280;26984;59.928;30.306;2023-01-29T02:30:43;100611.75;;;-1.45;100.00
41250;BME280;26984;59.928;30.306;2023-01-29T02:33:23;100569.31;;;-1.63;100.00
41250;BME280;26984;59.928;30.306;2023-01-29T02:35:58;100602.69;;;-1.33;100.00
41250;BME280;26984;59.928;30.306;2023-01-29T02:38:37;100595.84;;;-1.35;100.00
41250;BME280;26984;59.928;30.306;2023-01-29T02:41:11;100599.47;;;-1.36;100.00
41250;BME280;26984;59.928;30.306;2023-01-29T02:43:45;100589.47;;;-1.33;100.00
41250;BME280;26984;59.928;30.306;2023-01-29T02:46:17;100584.19;;;-1.33;100.00
41250;BME280;26984;59.928;30.306;2023-01-29T02:48:54;100591.94;;;-1.22;100.00
41250;BME280;26984;59.928;30.306;2023-01-29T02:51:29;100593.06;;;-1.14;100.00
41250;BME280;26984;59.928;30.306;2023-01-29T02:54:03;100582.91;;;-1.09;100.00
41250;BME280;26984;59.928;30.306;2023-01-29T02:56:36;100582.25;;;-1.31;100.00
41250;BME280;26984;59.928;30.306;2023-01-29T02:59:08;100569.31;;;-1.34;100.00
41250;BME280;26984;59.928;30.306;2023-01-29T03:01:43;100512.47;;;-1.67;100.00
41250;BME280;26984;59.928;30.306;2023-01-29T03:04:18;100566.22;;;-1.19;100.00
41250;BME280;26984;59.928;30.306;2023-01-29T03:06:50;100561.22;;;-1.23;100.00
41250;BME280;26984;59.928;30.306;2023-01-29T03:09:25;100550.91;;;-1.16;100.00
41250;BME280;26984;59.928;30.306;2023-01-29T03:12:01;100556.03;;;-1.14;100.00
41250;BME280;26984;59.928;30.306;2023-01-29T03:14:47;100548.66;;;-1.11;100.00
41250;BME280;26984;59.928;30.306;2023-01-29T03:17:42;100537.25;;;-1.02;100.00
41250;BME280;26984;59.928;30.306;2023-01-29T03:20:16;100546.72;;;-1.09;100.00
41250;BME280;26984;59.928;30.306;2023-01-29T03:22:49;100539.34;;;-1.05;100.00
41250;BME280;26984;59.928;30.306;2023-01-29T03:25:20;100533.78;;;-1.12;100.00
41250;BME280;26984;59.928;30.306;2023-01-29T03:28:11;100520.41;;;-1.10;100.00
41250;BME280;26984;59.928;30.306;2023-01-29T03:31:03;100508.31;;;-1.03;100.00
41250;BME280;26984;59.928;30.306;2023-01-29T03:33:59;100502.88;;;-1.02;100.00
41250;BME280;26984;59.928;30.306;2023-01-29T03:36:32;100510.91;;;-0.93;100.00
41250;BME280;26984;59.928;30.306;2023-01-29T03:39:06;100494.22;;;-1.04;100.00
41250;BME280;26984;59.928;30.306;2023-01-29T03:41:39;100504.41;;;-0.99;100.00
41250;BME280;26984;59.928;30.306;2023-01-29T03:44:16;100500.06;;;-1.00;100.00
41250;BME280;26984;59.928;30.306;2023-01-29T03:46:53;100501.84;;;-0.91;100.00
41250;BME280;26984;59.928;30.306;2023-01-29T03:49:30;100506.75;;;-0.96;100.00
41250;BME280;26984;59.928;30.306;2023-01-29T03:52:03;100492.94;;;-0.90;100.00
41250;BME280;26984;59.928;30.306;2023-01-29T03:54:38;100491.44;;;-0.92;100.00
41250;BME280;26984;59.928;30.306;2023-01-29T03:57:15;100474.69;;;-0.93;100.00
41250;BME280;26984;59.928;30.306;2023-01-29T03:59:52;100479.66;;;-0.80;100.00
41250;BME280;26984;59.928;30.306;2023-01-29T04:02:49;100472.81;;;-0.73;100.00
41250;BME280;26984;59.928;30.306;2023-01-29T04:05:23;100475.72;;;-0.66;100.00
41250;BME280;26984;59.928;30.306;2023-01-29T04:08:09;100471.31;;;-0.58;100.00
41250;BME280;26984;59.928;30.306;2023-01-29T04:10:40;100471.97;;;-0.46;100.00
41250;BME280;26984;59.928;30.306;2023-01-29T04:13:12;100472.63;;;-0.44;100.00
41250;BME280;26984;59.928;30.306;2023-01-29T04:15:46;100465.91;;;-0.56;100.00
41250;BME280;26984;59.928;30.306;2023-01-29T04:18:19;100459.78;;;-0.57;100.00
41250;BME280;26984;59.928;30.306;2023-01-29T04:21:04;100462.81;;;-0.52;100.00
41250;BME280;26984;59.928;30.306;2023-01-29T04:23:33;100459.47;;;-0.54;100.00
41250;BME280;26984;59.928;30.306;2023-01-29T04:26:18;100459.56;;;-0.45;100.00
41250;BME280;26984;59.928;30.306;2023-01-29T04:29:04;100457.50;;;-0.52;100.00
41250;BME280;26984;59.928;30.306;2023-01-29T04:31:41;100447.75;;;-0.51;100.00
41250;BME280;26984;59.928;30.306;2023-01-29T04:34:20;100442.75;;;-0.54;100.00
41250;BME280;26984;59.928;30.306;2023-01-29T04:36:58;100447.00;;;-0.43;100.00
41250;BME280;26984;59.928;30.306;2023-01-29T04:39:39;100452.16;;;-0.42;100.00
41250;BME280;26984;59.928;30.306;2023-01-29T04:42:14;100447.16;;;-0.45;100.00
41250;BME280;26984;59.928;30.306;2023-01-29T04:44:49;100433.69;;;-0.52;100.00
41250;BME280;26984;59.928;30.306;2023-01-29T04:47:28;100434.38;;;-0.50;100.00
41250;BME280;26984;59.928;30.306;2023-01-29T04:50:08;100417.56;;;-0.58;100.00
41250;BME280;26984;59.928;30.306;2023-01-29T04:52:46;100421.16;;;-0.50;100.00
41250;BME280;26984;59.928;30.306;2023-01-29T04:55:24;100424.53;;;-0.57;100.00
41250;BME280;26984;59.928;30.306;2023-01-29T04:58:04;100417.28;;;-0.55;100.00
41250;BME280;26984;59.928;30.306;2023-01-29T05:00:36;100425.69;;;-0.42;100.00
41250;BME280;26984;59.928;30.306;2023-01-29T05:03:06;100417.53;;;-0.49;100.00
41250;BME280;26984;59.928;30.306;2023-01-29T05:05:39;100419.94;;;-0.37;100.00
41250;BME280;26984;59.928;30.306;2023-01-29T05:08:11;100411.94;;;-0.45;100.00
41250;BME280;26984;59.928;30.306;2023-01-29T05:10:40;100410.41;;;-0.48;100.00
41250;BME280;26984;59.928;30.306;2023-01-29T05:13:12;100413.59;;;-0.44;100.00
41250;BME280;26984;59.928;30.306;2023-01-29T05:15:45;100416.25;;;-0.44;100.00
41250;BME280;26984;59.928;30.306;2023-01-29T05:18:15;100420.31;;;-0.32;100.00
41250;BME280;26984;59.928;30.306;2023-01-29T05:20:44;100423.66;;;-0.30;100.00
41250;BME280;26984;59.928;30.306;2023-01-29T05:23:15;100419.47;;;-0.51;100.00
41250;BME280;26984;59.928;30.306;2023-01-29T05:25:43;100420.84;;;-0.46;100.00
41250;BME280;26984;59.928;30.306;2023-01-29T05:28:12;100426.97;;;-0.46;100.00
41250;BME280;26984;59.928;30.306;2023-01-29T05:30:42;100410.16;;;-0.55;100.00
41250;BME280;26984;59.928;30.306;2023-01-29T05:33:13;100422.03;;;-0.59;100.00
41250;BME280;26984;59.928;30.306;2023-01-29T05:35:42;100417.44;;;-0.57;100.00
41250;BME280;26984;59.928;30.306;2023-01-29T05:38:11;100416.53;;;-0.47;100.00
41250;BME280;26984;59.928;30.306;2023-01-29T05:40:38;100414.34;;;-0.52;100.00
41250;BME280;26984;59.928;30.306;2023-01-29T05:43:11;100412.53;;;-0.52;100.00
41250;BME280;26984;59.928;30.306;2023-01-29T05:45:40;100412.97;;;-0.56;100.00
41250;BME280;26984;59.928;30.306;2023-01-29T05:48:08;100415.09;;;-0.60;100.00
41250;BME280;26984;59.928;30.306;2023-01-29T05:50:36;100404.44;;;-0.50;100.00
41250;BME280;26984;59.928;30.306;2023-01-29T05:53:04;100406.34;;;-0.60;100.00
41250;BME280;26984;59.928;30.306;2023-01-29T05:55:33;100397.72;;;-0.44;100.00
41250;BME280;26984;59.928;30.306;2023-01-29T05:58:01;100392.56;;;-0.46;100.00
41250;BME280;26984;59.928;30.306;2023-01-29T06:00:29;100406.63;;;-0.45;100.00
41250;BME280;26984;59.928;30.306;2023-01-29T06:02:57;100403.16;;;-0.28;100.00
41250;BME280;26984;59.928;30.306;2023-01-29T06:05:25;100411.00;;;-0.36;100.00
41250;BME280;26984;59.928;30.306;2023-01-29T06:07:53;100397.25;;;-0.40;100.00
41250;BME280;26984;59.928;30.306;2023-01-29T06:10:21;100409.13;;;-0.26;100.00
41250;BME280;26984;59.928;30.306;2023-01-29T06:12:50;100413.00;;;-0.20;100.00
41250;BME280;26984;59.928;30.306;2023-01-29T06:15:18;100410.03;;;-0.17;100.00
41250;BME280;26984;59.928;30.306;2023-01-29T06:17:45;100414.88;;;-0.13;100.00
41250;BME280;26984;59.928;30.306;2023-01-29T06:20:13;100409.19;;;-0.18;100.00
41250;BME280;26984;59.928;30.306;2023-01-29T06:22:41;100413.53;;;-0.17;100.00
41250;BME280;26984;59.928;30.306;2023-01-29T06:25:09;100409.28;;;-0.10;100.00
41250;BME280;26984;59.928;30.306;2023-01-29T06:27:37;100411.69;;;-0.16;100.00
41250;BME280;26984;59.928;30.306;2023-01-29T06:30:07;100414.88;;;-0.13;100.00
41250;BME280;26984;59.928;30.306;2023-01-29T06:32:36;100403.47;;;-0.13;100.00
41250;BME280;26984;59.928;30.306;2023-01-29T06:35:04;100406.34;;;-0.07;100.00
41250;BME280;26984;59.928;30.306;2023-01-29T06:37:33;100396.69;;;-0.08;100.00
41250;BME280;26984;59.928;30.306;2023-01-29T06:40:00;100406.00;;;-0.04;100.00
41250;BME280;26984;59.928;30.306;2023-01-29T06:42:28;100398.22;;;-0.05;100.00
41250;BME280;26984;59.928;30.306;2023-01-29T06:44:56;100396.56;;;-0.06;100.00
41250;BME280;26984;59.928;30.306;2023-01-29T06:47:26;100405.78;;;0.08;100.00
41250;BME280;26984;59.928;30.306;2023-01-29T06:49:54;100400.09;;;0.03;100.00
41250;BME280;26984;59.928;30.306;2023-01-29T06:52:22;100404.78;;;0.09;100.00
41250;BME280;26984;59.928;30.306;2023-01-29T06:54:50;100393.19;;;0.10;100.00
41250;BME280;26984;59.928;30.306;2023-01-29T06:57:18;100400.06;;;0.20;100.00
41250;BME280;26984;59.928;30.306;2023-01-29T06:59:47;100402.19;;;0.17;100.00
41250;BME280;26984;59.928;30.306;2023-01-29T07:02:14;100396.31;;;0.31;100.00
41250;BME280;26984;59.928;30.306;2023-01-29T07:04:43;100397.81;;;0.26;100.00
41250;BME280;26984;59.928;30.306;2023-01-29T07:07:11;100386.22;;;0.27;100.00
41250;BME280;26984;59.928;30.306;2023-01-29T07:09:40;100394.31;;;0.25;100.00
41250;BME280;26984;59.928;30.306;2023-01-29T07:12:08;100394.88;;;0.37;100.00
41250;BME280;26984;59.928;30.306;2023-01-29T07:14:36;100394.38;;;0.33;100.00
41250;BME280;26984;59.928;30.306;2023-01-29T07:17:04;100372.34;;;0.33;100.00
41250;BME280;26984;59.928;30.306;2023-01-29T07:19:32;100388.63;;;0.46;100.00
41250;BME280;26984;59.928;30.306;2023-01-29T07:22:01;100390.44;;;0.45;100.00
41250;BME280;26984;59.928;30.306;2023-01-29T07:24:29;100388.13;;;0.42;100.00
41250;BME280;26984;59.928;30.306;2023-01-29T07:26:57;100390.97;;;0.49;100.00
41250;BME280;26984;59.928;30.306;2023-01-29T07:29:25;100385.00;;;0.47;100.00
41250;BME280;26984;59.928;30.306;2023-01-29T07:31:53;100396.78;;;0.53;100.00
41250;BME280;26984;59.928;30.306;2023-01-29T07:34:20;100392.97;;;0.47;100.00
41250;BME280;26984;59.928;30.306;2023-01-29T07:36:52;100396.00;;;0.60;100.00
41250;BME280;26984;59.928;30.306;2023-01-29T07:39:21;100386.03;;;0.54;100.00
41250;BME280;26984;59.928;30.306;2023-01-29T07:41:49;100385.53;;;0.51;100.00
41250;BME280;26984;59.928;30.306;2023-01-29T07:44:17;100384.56;;;0.60;100.00
41250;BME280;26984;59.928;30.306;2023-01-29T07:46:45;100384.84;;;0.48;100.00
41250;BME280;26984;59.928;30.306;2023-01-29T07:49:13;100388.84;;;0.53;100.00
41250;BME280;26984;59.928;30.306;2023-01-29T07:51:41;100384.06;;;0.56;100.00
41250;BME280;26984;59.928;30.306;2023-01-29T07:54:09;100389.34;;;0.56;100.00
41250;BME280;26984;59.928;30.306;2023-01-29T07:56:38;100387.38;;;0.58;100.00
41250;BME280;26984;59.928;30.306;2023-01-29T07:59:06;100396.69;;;0.62;100.00
41250;BME280;26984;59.928;30.306;2023-01-29T08:01:34;100387.53;;;0.57;100.00
41250;BME280;26984;59.928;30.306;2023-01-29T08:04:02;100384.38;;;0.53;100.00
41250;BME280;26984;59.928;30.306;2023-01-29T08:06:29;100374.47;;;0.63;100.00
41250;BME280;26984;59.928;30.306;2023-01-29T08:08:57;100367.28;;;0.47;100.00
41250;BME280;26984;59.928;30.306;2023-01-29T08:11:25;100382.72;;;0.52;100.00
41250;BME280;26984;59.928;30.306;2023-01-29T08:13:55;100385.38;;;0.52;100.00
41250;BME280;26984;59.928;30.306;2023-01-29T08:16:23;100380.09;;;0.60;100.00
41250;BME280;26984;59.928;30.306;2023-01-29T08:18:51;100382.13;;;0.66;100.00
41250;BME280;26984;59.928;30.306;2023-01-29T08:21:19;100393.88;;;0.64;100.00
41250;BME280;26984;59.928;30.306;2023-01-29T08:23:47;100390.06;;;0.66;100.00
41250;BME280;26984;59.928;30.306;2023-01-29T08:26:14;100384.47;;;0.69;100.00
41250;BME280;26984;59.928;30.306;2023-01-29T08:28:42;100387.59;;;0.65;100.00
41250;BME280;26984;59.928;30.306;2023-01-29T08:31:18;100381.59;;;0.63;100.00
41250;BME280;26984;59.928;30.306;2023-01-29T08:33:46;100387.78;;;0.71;100.00
41250;BME280;26984;59.928;30.306;2023-01-29T08:36:14;100398.03;;;0.66;100.00
41250;BME280;26984;59.928;30.306;2023-01-29T08:38:42;100379.34;;;0.68;100.00
41250;BME280;26984;59.928;30.306;2023-01-29T08:41:10;100358.56;;;0.63;100.00
41250;BME280;26984;59.928;30.306;2023-01-29T08:43:38;100384.81;;;0.75;100.00
41250;BME280;26984;59.928;30.306;2023-01-29T08:46:06;100373.31;;;0.58;100.00
41250;BME280;26984;59.928;30.306;2023-01-29T08:48:36;100378.66;;;0.66;100.00
41250;BME280;26984;59.928;30.306;2023-01-29T08:51:04;100377.81;;;0.65;100.00
41250;BME280;26984;59.928;30.306;2023-01-29T08:53:32;100379.78;;;0.63;100.00
41250;BME280;26984;59.928;30.306;2023-01-29T08:56:00;100382.81;;;0.68;100.00
41250;BME280;26984;59.928;30.306;2023-01-29T08:58:28;100375.00;;;0.67;100.00
41250;BME280;26984;59.928;30.306;2023-01-29T09:00:56;100372.84;;;0.70;100.00
41250;BME280;26984;59.928;30.306;2023-01-29T09:03:31;100389.78;;;0.78;100.00
41250;BME280;26984;59.928;30.306;2023-01-29T09:06:00;100379.69;;;0.81;100.00
41250;BME280;26984;59.928;30.306;2023-01-29T09:08:28;100381.91;;;0.86;100.00
41250;BME280;26984;59.928;30.306;2023-01-29T09:10:57;100369.81;;;0.91;100.00
41250;BME280;26984;59.928;30.306;2023-01-29T09:13:26;100367.00;;;0.93;100.00
41250;BME280;26984;59.928;30.306;2023-01-29T09:15:54;100365.19;;;0.93;100.00
41250;BME280;26984;59.928;30.306;2023-01-29T09:18:24;100358.56;;;0.98;100.00
41250;BME280;26984;59.928;30.306;2023-01-29T09:20:52;100358.06;;;1.02;100.00
41250;BME280;26984;59.928;30.306;2023-01-29T09:23:22;100375.81;;;1.02;100.00
41250;BME280;26984;59.928;30.306;2023-01-29T09:25:50;100354.72;;;0.92;100.00
41250;BME280;26984;59.928;30.306;2023-01-29T09:28:18;100358.56;;;0.98;100.00
41250;BME280;26984;59.928;30.306;2023-01-29T09:30:46;100343.13;;;0.93;100.00
41250;BME280;26984;59.928;30.306;2023-01-29T09:33:14;100345.78;;;0.93;100.00
41250;BME280;26984;59.928;30.306;2023-01-29T09:35:42;100324.00;;;0.73;100.00
41250;BME280;26984;59.928;30.306;2023-01-29T09:38:11;100331.00;;;0.82;100.00
41250;BME280;26984;59.928;30.306;2023-01-29T09:40:47;100323.69;;;0.84;100.00
41250;BME280;26984;59.928;30.306;2023-01-29T09:43:21;100336.81;;;0.86;100.00
41250;BME280;26984;59.928;30.306;2023-01-29T09:45:53;100330.63;;;0.77;100.00
41250;BME280;26984;59.928;30.306;2023-01-29T09:48:27;100328.97;;;0.76;100.00
41250;BME280;26984;59.928;30.306;2023-01-29T09:50:57;100330.81;;;0.76;100.00
41250;BME280;26984;59.928;30.306;2023-01-29T09:53:30;100328.78;;;0.69;100.00
41250;BME280;26984;59.928;30.306;2023-01-29T09:56:07;100324.69;;;0.83;100.00
41250;BME280;26984;59.928;30.306;2023-01-29T09:58:39;100317.88;;;0.81;100.00
41250;BME280;26984;59.928;30.306;2023-01-29T10:01:14;100309.22;;;0.70;100.00
41250;BME280;26984;59.928;30.306;2023-01-29T10:04:04;100329.00;;;0.84;100.00
41250;BME280;26984;59.928;30.306;2023-01-29T10:06:45;100325.19;;;0.79;100.00
41250;BME280;26984;59.928;30.306;2023-01-29T10:09:41;100320.22;;;0.84;100.00
41250;BME280;26984;59.928;30.306;2023-01-29T10:12:28;100296.47;;;0.74;100.00
41250;BME280;26984;59.928;30.306;2023-01-29T10:15:09;100318.19;;;0.78;100.00
41250;BME280;26984;59.928;30.306;2023-01-29T10:17:56;100321.56;;;0.88;100.00
41250;BME280;26984;59.928;30.306;2023-01-29T10:20:49;100319.06;;;0.86;100.00
41250;BME280;26984;59.928;30.306;2023-01-29T10:23:22;100306.47;;;0.88;100.00
41250;BME280;26984;59.928;30.306;2023-01-29T10:25:53;100315.44;;;0.95;100.00
41250;BME280;26984;59.928;30.306;2023-01-29T10:28:26;100309.78;;;0.82;100.00
41250;BME280;26984;59.928;30.306;2023-01-29T10:30:56;100316.25;;;0.96;100.00
41250;BME280;26984;59.928;30.306;2023-01-29T10:33:30;100325.53;;;0.92;100.00
41250;BME280;26984;59.928;30.306;2023-01-29T10:36:01;100329.00;;;0.92;100.00
41250;BME280;26984;59.928;30.306;2023-01-29T10:38:38;100338.34;;;0.97;100.00
41250;BME280;26984;59.928;30.306;2023-01-29T10:41:21;100328.94;;;1.10;100.00
41250;BME280;26984;59.928;30.306;2023-01-29T10:44:04;100327.06;;;1.03;100.00
41250;BME280;26984;59.928;30.306;2023-01-29T10:46:47;100331.91;;;1.07;100.00
41250;BME280;26984;59.928;30.306;2023-01-29T10:49:40;100328.94;;;1.10;100.00
41250;BME280;26984;59.928;30.306;2023-01-29T10:52:22;100320.66;;;1.22;100.00
41250;BME280;26984;59.928;30.306;2023-01-29T10:55:03;100298.28;;;1.32;100.00
41250;BME280;26984;59.928;30.306;2023-01-29T10:57:56;100293.28;;;1.21;100.00
41250;BME280;26984;59.928;30.306;2023-01-29T11:00:34;100276.34;;;1.06;100.00
41250;BME280;26984;59.928;30.306;2023-01-29T11:03:12;100294.25;;;1.04;100.00
41250;BME280;26984;59.928;30.306;2023-01-29T11:05:46;100295.72;;;1.06;100.00
41250;BME280;26984;59.928;30.306;2023-01-29T11:08:20;100293.94;;;1.07;100.00
41250;BME280;26984;59.928;30.306;2023-01-29T11:10:57;100294.06;;;1.05;100.00
41250;BME280;26984;59.928;30.306;2023-01-29T11:13:31;100295.72;;;1.06;100.00
41250;BME280;26984;59.928;30.306;2023-01-29T11:16:05;100290.13;;;1.17;100.00
41250;BME280;26984;59.928;30.306;2023-01-29T11:18:49;100290.44;;;1.06;100.00
41250;BME280;26984;59.928;30.306;2023-01-29T11:21:17;100268.81;;;0.85;100.00
41250;BME280;26984;59.928;30.306;2023-01-29T11:23:45;100269.34;;;0.88;100.00
41250;BME280;26984;59.928;30.306;2023-01-29T11:26:17;100253.41;;;0.88;100.00
41250;BME280;26984;59.928;30.306;2023-01-29T11:28:47;100262.88;;;0.83;100.00
41250;BME280;26984;59.928;30.306;2023-01-29T11:31:20;100258.72;;;0.88;100.00
41250;BME280;26984;59.928;30.306;2023-01-29T11:33:51;100254.75;;;0.84;100.00
41250;BME280;26984;59.928;30.306;2023-01-29T11:36:26;100255.88;;;0.82;100.00
41250;BME280;26984;59.928;30.306;2023-01-29T11:39:12;100232.00;;;0.74;100.00
41250;BME280;26984;59.928;30.306;2023-01-29T11:41:47;100253.72;;;0.69;100.00
41250;BME280;26984;59.928;30.306;2023-01-29T11:44:20;100241.13;;;0.71;100.00
41250;BME280;26984;59.928;30.306;2023-01-29T11:46:50;100242.47;;;0.75;100.00
41250;BME280;26984;59.928;30.306;2023-01-29T11:49:24;100245.78;;;0.77;100.00
41250;BME280;26984;59.928;30.306;2023-01-29T11:51:55;100239.97;;;0.74;100.00
41250;BME280;26984;59.928;30.306;2023-01-29T11:54:28;100244.44;;;0.65;100.00
41250;BME280;26984;59.928;30.306;2023-01-29T11:56:57;100246.75;;;0.68;100.00
41250;BME280;26984;59.928;30.306;2023-01-29T11:59:36;100250.25;;;0.68;100.00
41250;BME280;26984;59.928;30.306;2023-01-29T12:02:26;100241.09;;;0.63;100.00
41250;BME280;26984;59.928;30.306;2023-01-29T12:04:58;100226.50;;;0.59;100.00
41250;BME280;26984;59.928;30.306;2023-01-29T12:07:28;100239.63;;;0.68;100.00
41250;BME280;26984;59.928;30.306;2023-01-29T12:09:57;100238.63;;;0.61;100.00
41250;BME280;26984;59.928;30.306;2023-01-29T12:12:31;100242.44;;;0.67;100.00
41250;BME280;26984;59.928;30.306;2023-01-29T12:15:18;100216.53;;;0.44;100.00
41250;BME280;26984;59.928;30.306;2023-01-29T12:17:58;100249.06;;;0.63;100.00
41250;BME280;26984;59.928;30.306;2023-01-29T12:20:33;100237.81;;;0.77;100.00
41250;BME280;26984;59.928;30.306;2023-01-29T12:23:10;100239.66;;;0.77;100.00
41250;BME280;26984;59.928;30.306;2023-01-29T12:25:43;100237.13;;;0.67;100.00
41250;BME280;26984;59.928;30.306;2023-01-29T12:28:24;100236.31;;;0.66;100.00
41250;BME280;26984;59.928;30.306;2023-01-29T12:31:07;100253.34;;;0.64;100.00
41250;BME280;26984;59.928;30.306;2023-01-29T12:33:49;100211.03;;;0.38;100.00
41250;BME280;26984;59.928;30.306;2023-01-29T12:36:23;100229.47;;;0.56;100.00
41250;BME280;26984;59.928;30.306;2023-01-29T12:38:53;100231.50;;;0.62;100.00
41250;BME280;26984;59.928;30.306;2023-01-29T12:41:27;100236.44;;;0.57;100.00
41250;BME280;26984;59.928;30.306;2023-01-29T12:44:00;100231.31;;;0.55;100.00
41250;BME280;26984;59.928;30.306;2023-01-29T12:46:32;100239.47;;;0.70;100.00
41250;BME280;26984;59.928;30.306;2023-01-29T12:49:07;100236.28;;;0.58;100.00
41250;BME280;26984;59.928;30.306;2023-01-29T12:51:41;100222.34;;;0.56;100.00
41250;BME280;26984;59.928;30.306;2023-01-29T12:54:17;100218.25;;;0.62;100.00
41250;BME280;26984;59.928;30.306;2023-01-29T12:56:49;100201.66;;;0.52;100.00
41250;BME280;26984;59.928;30.306;2023-01-29T12:59:25;100215.78;;;0.68;100.00
41250;BME280;26984;59.928;30.306;2023-01-29T13:01:57;100207.00;;;0.68;100.00
41250;BME280;26984;59.928;30.306;2023-01-29T13:04:35;100192.72;;;0.61;100.00
41250;BME280;26984;59.928;30.306;2023-01-29T13:07:11;100196.53;;;0.75;100.00